sensor_id;sensor_type;location;lat;lon;timestamp;P1;durP1;ratioP1;P2;durP2;ratioP2
21438;SDS011;10880;50.302;18.736;2023-03-13T00:01:02;6.90;;;4.30;;
21438;SDS011;10880;50.302;18.736;2023-03-13T00:03:37;6.17;;;3.50;;
21438;SDS011;10880;50.302;18.736;2023-03-13T00:06:04;4.33;;;3.00;;
21438;SDS011;10880;50.302;18.736;2023-03-13T00:08:30;8.17;;;4.60;;
21438;SDS011;10880;50.302;18.736;2023-03-13T00:11:00;7.07;;;4.73;;
21438;SDS011;10880;50.302;18.736;2023-03-13T00:13:28;8.13;;;4.80;;
21438;SDS011;10880;50.302;18.736;2023-03-13T00:16:08;5.73;;;3.67;;
21438;SDS011;10880;50.302;18.736;2023-03-13T00:18:37;6.13;;;4.10;;
21438;SDS011;10880;50.302;18.736;2023-03-13T00:21:04;5.87;;;3.97;;
21438;SDS011;10880;50.302;18.736;2023-03-13T00:23:33;9.77;;;4.80;;
21438;SDS011;10880;50.302;18.736;2023-03-13T00:26:08;7.27;;;3.77;;
21438;SDS011;10880;50.302;18.736;2023-03-13T00:28:37;4.53;;;3.13;;
21438;SDS011;10880;50.302;18.736;2023-03-13T00:31:12;7.00;;;3.60;;
21438;SDS011;10880;50.302;18.736;2023-03-13T00:33:41;8.23;;;3.83;;
21438;SDS011;10880;50.302;18.736;2023-03-13T00:36:10;4.83;;;3.40;;
21438;SDS011;10880;50.302;18.736;2023-03-13T00:38:37;7.03;;;3.50;;
21438;SDS011;10880;50.302;18.736;2023-03-13T00:41:08;8.53;;;4.10;;
21438;SDS011;10880;50.302;18.736;2023-03-13T00:43:39;5.63;;;3.07;;
21438;SDS011;10880;50.302;18.736;2023-03-13T00:46:07;8.07;;;3.83;;
21438;SDS011;10880;50.302;18.736;2023-03-13T00:48:34;6.87;;;3.43;;
21438;SDS011;10880;50.302;18.736;2023-03-13T00:51:01;8.10;;;4.57;;
21438;SDS011;10880;50.302;18.736;2023-03-13T00:53:29;14.53;;;7.53;;
21438;SDS011;10880;50.302;18.736;2023-03-13T00:56:06;15.57;;;7.17;;
21438;SDS011;10880;50.302;18.736;2023-03-13T00:58:35;6.90;;;4.03;;
21438;SDS011;10880;50.302;18.736;2023-03-13T01:01:13;8.27;;;4.10;;
21438;SDS011;10880;50.302;18.736;2023-03-13T01:03:40;6.83;;;3.70;;
21438;SDS011;10880;50.302;18.736;2023-03-13T01:06:09;5.13;;;3.67;;
21438;SDS011;10880;50.302;18.736;2023-03-13T01:08:38;6.07;;;3.40;;
21438;SDS011;10880;50.302;18.736;2023-03-13T01:11:05;4.97;;;3.63;;
21438;SDS011;10880;50.302;18.736;2023-03-13T01:13:34;3.43;;;3.00;;
21438;SDS011;10880;50.302;18.736;2023-03-13T01:16:01;4.57;;;3.23;;
21438;SDS011;10880;50.302;18.736;2023-03-13T01:18:28;4.13;;;2.93;;
21438;SDS011;10880;50.302;18.736;2023-03-13T01:20:55;4.23;;;3.10;;
21438;SDS011;10880;50.302;18.736;2023-03-13T01:23:22;2.80;;;2.50;;
21438;SDS011;10880;50.302;18.736;2023-03-13T01:25:49;3.30;;;2.90;;
21438;SDS011;10880;50.302;18.736;2023-03-13T01:28:15;6.10;;;3.83;;
21438;SDS011;10880;50.302;18.736;2023-03-13T01:30:42;4.90;;;3.27;;
21438;SDS011;10880;50.302;18.736;2023-03-13T01:33:09;3.60;;;2.63;;
21438;SDS011;10880;50.302;18.736;2023-03-13T01:35:36;3.40;;;2.90;;
21438;SDS011;10880;50.302;18.736;2023-03-13T01:38:03;2.97;;;2.67;;
21438;SDS011;10880;50.302;18.736;2023-03-13T01:40:29;2.80;;;2.60;;
21438;SDS011;10880;50.302;18.736;2023-03-13T01:42:57;3.13;;;2.50;;
21438;SDS011;10880;50.302;18.736;2023-03-13T01:48:25;3.60;;;2.70;;
21438;SDS011;10880;50.302;18.736;2023-03-13T01:53:44;3.83;;;2.90;;
21438;SDS011;10880;50.302;18.736;2023-03-13T01:56:13;2.77;;;2.40;;
21438;SDS011;10880;50.302;18.736;2023-03-13T01:58:46;3.37;;;2.90;;
21438;SDS011;10880;50.302;18.736;2023-03-13T02:01:14;2.97;;;2.70;;
21438;SDS011;10880;50.302;18.736;2023-03-13T02:03:41;3.83;;;2.73;;
21438;SDS011;10880;50.302;18.736;2023-03-13T02:06:08;3.17;;;2.80;;
21438;SDS011;10880;50.302;18.736;2023-03-13T02:08:37;4.40;;;3.20;;
21438;SDS011;10880;50.302;18.736;2023-03-13T02:13:37;5.63;;;3.80;;
21438;SDS011;10880;50.302;18.736;2023-03-13T02:16:04;4.70;;;3.17;;
21438;SDS011;10880;50.302;18.736;2023-03-13T02:18:31;6.03;;;3.87;;
21438;SDS011;10880;50.302;18.736;2023-03-13T02:21:04;4.90;;;3.53;;
21438;SDS011;10880;50.302;18.736;2023-03-13T02:23:36;3.67;;;2.90;;
21438;SDS011;10880;50.302;18.736;2023-03-13T02:26:13;3.20;;;2.50;;
21438;SDS011;10880;50.302;18.736;2023-03-13T02:28:40;4.37;;;2.87;;
21438;SDS011;10880;50.302;18.736;2023-03-13T02:31:11;3.87;;;3.00;;
21438;SDS011;10880;50.302;18.736;2023-03-13T02:33:38;2.50;;;2.30;;
21438;SDS011;10880;50.302;18.736;2023-03-13T02:36:06;2.50;;;2.30;;
21438;SDS011;10880;50.302;18.736;2023-03-13T02:38:36;2.80;;;2.53;;
21438;SDS011;10880;50.302;18.736;2023-03-13T02:41:04;6.13;;;3.97;;
21438;SDS011;10880;50.302;18.736;2023-03-13T02:43:32;3.73;;;3.00;;
21438;SDS011;10880;50.302;18.736;2023-03-13T02:46:08;3.13;;;2.70;;
21438;SDS011;10880;50.302;18.736;2023-03-13T02:48:49;2.70;;;2.50;;
21438;SDS011;10880;50.302;18.736;2023-03-13T02:51:28;3.60;;;2.47;;
21438;SDS011;10880;50.302;18.736;2023-03-13T02:53:58;2.77;;;2.50;;
21438;SDS011;10880;50.302;18.736;2023-03-13T02:56:26;2.93;;;2.60;;
21438;SDS011;10880;50.302;18.736;2023-03-13T02:58:54;3.63;;;3.10;;
21438;SDS011;10880;50.302;18.736;2023-03-13T03:01:23;5.23;;;3.37;;
21438;SDS011;10880;50.302;18.736;2023-03-13T03:03:50;3.30;;;2.83;;
21438;SDS011;10880;50.302;18.736;2023-03-13T03:06:17;4.87;;;3.30;;
21438;SDS011;10880;50.302;18.736;2023-03-13T03:08:45;5.37;;;3.50;;
21438;SDS011;10880;50.302;18.736;2023-03-13T03:11:12;4.50;;;3.00;;
21438;SDS011;10880;50.302;18.736;2023-03-13T03:13:40;5.47;;;3.53;;
21438;SDS011;10880;50.302;18.736;2023-03-13T03:16:07;3.57;;;2.73;;
21438;SDS011;10880;50.302;18.736;2023-03-13T03:18:35;3.97;;;2.70;;
21438;SDS011;10880;50.302;18.736;2023-03-13T03:21:03;4.67;;;3.43;;
21438;SDS011;10880;50.302;18.736;2023-03-13T03:23:35;5.57;;;3.33;;
21438;SDS011;10880;50.302;18.736;2023-03-13T03:26:02;3.63;;;2.90;;
21438;SDS011;10880;50.302;18.736;2023-03-13T03:28:30;4.00;;;3.10;;
21438;SDS011;10880;50.302;18.736;2023-03-13T03:31:09;4.27;;;3.23;;
21438;SDS011;10880;50.302;18.736;2023-03-13T03:33:37;3.17;;;2.87;;
21438;SDS011;10880;50.302;18.736;2023-03-13T03:36:08;2.80;;;2.50;;
21438;SDS011;10880;50.302;18.736;2023-03-13T03:38:35;3.27;;;2.80;;
21438;SDS011;10880;50.302;18.736;2023-03-13T03:41:05;5.57;;;3.67;;
21438;SDS011;10880;50.302;18.736;2023-03-13T03:43:33;4.13;;;3.00;;
21438;SDS011;10880;50.302;18.736;2023-03-13T03:46:02;4.80;;;3.17;;
21438;SDS011;10880;50.302;18.736;2023-03-13T03:48:29;4.77;;;2.90;;
21438;SDS011;10880;50.302;18.736;2023-03-13T03:50:56;3.33;;;2.57;;
21438;SDS011;10880;50.302;18.736;2023-03-13T03:53:24;3.37;;;2.70;;
21438;SDS011;10880;50.302;18.736;2023-03-13T03:55:51;2.97;;;2.70;;
21438;SDS011;10880;50.302;18.736;2023-03-13T03:58:18;2.90;;;2.70;;
21438;SDS011;10880;50.302;18.736;2023-03-13T04:01:11;2.80;;;2.60;;
21438;SDS011;10880;50.302;18.736;2023-03-13T04:03:39;2.57;;;2.30;;
21438;SDS011;10880;50.302;18.736;2023-03-13T04:06:06;3.07;;;2.57;;
21438;SDS011;10880;50.302;18.736;2023-03-13T04:08:34;3.30;;;3.00;;
21438;SDS011;10880;50.302;18.736;2023-03-13T04:11:01;3.73;;;3.07;;
21438;SDS011;10880;50.302;18.736;2023-03-13T04:13:31;4.97;;;3.47;;
21438;SDS011;10880;50.302;18.736;2023-03-13T04:15:58;3.57;;;2.90;;
21438;SDS011;10880;50.302;18.736;2023-03-13T04:18:25;3.23;;;2.90;;
21438;SDS011;10880;50.302;18.736;2023-03-13T04:20:58;6.00;;;3.53;;
21438;SDS011;10880;50.302;18.736;2023-03-13T04:23:37;3.83;;;2.90;;
21438;SDS011;10880;50.302;18.736;2023-03-13T04:26:03;5.80;;;3.37;;
21438;SDS011;10880;50.302;18.736;2023-03-13T04:28:30;7.63;;;3.60;;
21438;SDS011;10880;50.302;18.736;2023-03-13T04:30:58;5.60;;;4.23;;
21438;SDS011;10880;50.302;18.736;2023-03-13T04:33:40;3.10;;;2.70;;
21438;SDS011;10880;50.302;18.736;2023-03-13T04:36:16;2.70;;;2.50;;
21438;SDS011;10880;50.302;18.736;2023-03-13T04:39:01;3.70;;;2.70;;
21438;SDS011;10880;50.302;18.736;2023-03-13T04:41:53;2.80;;;2.53;;
21438;SDS011;10880;50.302;18.736;2023-03-13T04:44:43;2.67;;;2.47;;
21438;SDS011;10880;50.302;18.736;2023-03-13T04:47:29;3.23;;;2.93;;
21438;SDS011;10880;50.302;18.736;2023-03-13T04:50:28;3.03;;;2.67;;
21438;SDS011;10880;50.302;18.736;2023-03-13T04:53:05;3.77;;;3.00;;
21438;SDS011;10880;50.302;18.736;2023-03-13T04:55:42;4.73;;;3.00;;
21438;SDS011;10880;50.302;18.736;2023-03-13T04:58:35;3.00;;;2.70;;
21438;SDS011;10880;50.302;18.736;2023-03-13T05:01:09;2.97;;;2.50;;
21438;SDS011;10880;50.302;18.736;2023-03-13T05:03:54;4.73;;;3.03;;
21438;SDS011;10880;50.302;18.736;2023-03-13T05:06:49;6.70;;;4.00;;
21438;SDS011;10880;50.302;18.736;2023-03-13T05:09:35;4.97;;;3.53;;
21438;SDS011;10880;50.302;18.736;2023-03-13T05:12:28;5.13;;;3.53;;
21438;SDS011;10880;50.302;18.736;2023-03-13T05:15:05;7.20;;;4.70;;
21438;SDS011;10880;50.302;18.736;2023-03-13T05:18:04;5.10;;;3.83;;
21438;SDS011;10880;50.302;18.736;2023-03-13T05:20:46;7.03;;;5.07;;
21438;SDS011;10880;50.302;18.736;2023-03-13T05:23:33;4.73;;;3.70;;
21438;SDS011;10880;50.302;18.736;2023-03-13T05:26:07;6.87;;;4.67;;
21438;SDS011;10880;50.302;18.736;2023-03-13T05:28:54;3.97;;;3.37;;
21438;SDS011;10880;50.302;18.736;2023-03-13T05:31:40;7.33;;;4.10;;
21438;SDS011;10880;50.302;18.736;2023-03-13T05:34:35;5.40;;;3.90;;
21438;SDS011;10880;50.302;18.736;2023-03-13T05:37:21;5.23;;;3.37;;
21438;SDS011;10880;50.302;18.736;2023-03-13T05:40:19;4.63;;;3.90;;
21438;SDS011;10880;50.302;18.736;2023-03-13T05:43:06;5.90;;;3.73;;
21438;SDS011;10880;50.302;18.736;2023-03-13T05:45:49;5.63;;;3.93;;
21438;SDS011;10880;50.302;18.736;2023-03-13T05:48:43;6.10;;;4.50;;
21438;SDS011;10880;50.302;18.736;2023-03-13T05:51:30;6.77;;;4.30;;
21438;SDS011;10880;50.302;18.736;2023-03-13T05:54:15;7.27;;;4.53;;
21438;SDS011;10880;50.302;18.736;2023-03-13T05:57:11;6.70;;;3.97;;
21438;SDS011;10880;50.302;18.736;2023-03-13T05:59:58;5.10;;;3.90;;
21438;SDS011;10880;50.302;18.736;2023-03-13T06:02:25;6.50;;;4.30;;
21438;SDS011;10880;50.302;18.736;2023-03-13T06:04:52;6.13;;;3.90;;
21438;SDS011;10880;50.302;18.736;2023-03-13T06:07:19;6.73;;;4.10;;
21438;SDS011;10880;50.302;18.736;2023-03-13T06:09:46;6.33;;;3.80;;
21438;SDS011;10880;50.302;18.736;2023-03-13T06:12:13;5.77;;;4.17;;
21438;SDS011;10880;50.302;18.736;2023-03-13T06:14:40;5.63;;;4.10;;
21438;SDS011;10880;50.302;18.736;2023-03-13T06:17:23;9.13;;;5.23;;
21438;SDS011;10880;50.302;18.736;2023-03-13T06:19:50;9.27;;;5.70;;
21438;SDS011;10880;50.302;18.736;2023-03-13T06:22:16;12.13;;;5.57;;
21438;SDS011;10880;50.302;18.736;2023-03-13T06:24:43;12.80;;;5.90;;
21438;SDS011;10880;50.302;18.736;2023-03-13T06:27:11;9.37;;;4.87;;
21438;SDS011;10880;50.302;18.736;2023-03-13T06:29:38;8.10;;;4.70;;
21438;SDS011;10880;50.302;18.736;2023-03-13T06:32:05;8.37;;;4.93;;
21438;SDS011;10880;50.302;18.736;2023-03-13T06:34:32;7.63;;;4.50;;
21438;SDS011;10880;50.302;18.736;2023-03-13T06:36:59;9.07;;;4.30;;
21438;SDS011;10880;50.302;18.736;2023-03-13T06:39:26;6.57;;;4.40;;
21438;SDS011;10880;50.302;18.736;2023-03-13T06:41:55;9.93;;;5.20;;
21438;SDS011;10880;50.302;18.736;2023-03-13T06:44:22;17.40;;;7.40;;
21438;SDS011;10880;50.302;18.736;2023-03-13T06:46:49;9.77;;;5.93;;
21438;SDS011;10880;50.302;18.736;2023-03-13T06:49:15;8.03;;;5.00;;
21438;SDS011;10880;50.302;18.736;2023-03-13T06:51:45;8.53;;;5.33;;
21438;SDS011;10880;50.302;18.736;2023-03-13T06:54:11;10.07;;;6.00;;
21438;SDS011;10880;50.302;18.736;2023-03-13T06:56:38;7.97;;;5.03;;
21438;SDS011;10880;50.302;18.736;2023-03-13T06:59:05;6.83;;;4.73;;
21438;SDS011;10880;50.302;18.736;2023-03-13T07:01:32;7.90;;;5.57;;
21438;SDS011;10880;50.302;18.736;2023-03-13T07:03:58;11.17;;;5.90;;
21438;SDS011;10880;50.302;18.736;2023-03-13T07:06:25;8.27;;;5.00;;
21438;SDS011;10880;50.302;18.736;2023-03-13T07:08:52;6.97;;;4.43;;
21438;SDS011;10880;50.302;18.736;2023-03-13T07:11:19;6.70;;;4.50;;
21438;SDS011;10880;50.302;18.736;2023-03-13T07:13:46;10.53;;;6.80;;
21438;SDS011;10880;50.302;18.736;2023-03-13T07:16:12;10.37;;;6.03;;
21438;SDS011;10880;50.302;18.736;2023-03-13T07:18:39;6.97;;;4.53;;
21438;SDS011;10880;50.302;18.736;2023-03-13T07:21:09;8.27;;;5.63;;
21438;SDS011;10880;50.302;18.736;2023-03-13T07:23:36;11.07;;;6.83;;
21438;SDS011;10880;50.302;18.736;2023-03-13T07:26:04;14.20;;;5.90;;
21438;SDS011;10880;50.302;18.736;2023-03-13T07:28:33;7.47;;;4.97;;
21438;SDS011;10880;50.302;18.736;2023-03-13T07:31:11;7.63;;;4.60;;
21438;SDS011;10880;50.302;18.736;2023-03-13T07:33:38;7.47;;;4.07;;
21438;SDS011;10880;50.302;18.736;2023-03-13T07:36:08;8.40;;;4.50;;
21438;SDS011;10880;50.302;18.736;2023-03-13T07:38:35;11.53;;;6.60;;
21438;SDS011;10880;50.302;18.736;2023-03-13T07:41:02;9.50;;;5.33;;
21438;SDS011;10880;50.302;18.736;2023-03-13T07:43:29;9.03;;;5.27;;
21438;SDS011;10880;50.302;18.736;2023-03-13T07:45:58;6.87;;;4.07;;
21438;SDS011;10880;50.302;18.736;2023-03-13T07:48:29;5.23;;;4.00;;
21438;SDS011;10880;50.302;18.736;2023-03-13T07:50:57;8.23;;;4.50;;
21438;SDS011;10880;50.302;18.736;2023-03-13T07:53:24;6.63;;;3.70;;
21438;SDS011;10880;50.302;18.736;2023-03-13T07:58:18;6.00;;;4.00;;
21438;SDS011;10880;50.302;18.736;2023-03-13T08:00:45;6.87;;;4.40;;
21438;SDS011;10880;50.302;18.736;2023-03-13T08:03:12;5.23;;;3.80;;
21438;SDS011;10880;50.302;18.736;2023-03-13T08:05:39;9.87;;;5.30;;
21438;SDS011;10880;50.302;18.736;2023-03-13T08:08:06;8.83;;;4.53;;
21438;SDS011;10880;50.302;18.736;2023-03-13T08:10:33;11.30;;;4.90;;
21438;SDS011;10880;50.302;18.736;2023-03-13T08:12:59;10.40;;;5.93;;
21438;SDS011;10880;50.302;18.736;2023-03-13T08:15:26;7.47;;;4.40;;
21438;SDS011;10880;50.302;18.736;2023-03-13T08:17:53;6.70;;;4.10;;
21438;SDS011;10880;50.302;18.736;2023-03-13T08:20:20;8.83;;;5.10;;
21438;SDS011;10880;50.302;18.736;2023-03-13T08:22:49;5.93;;;3.70;;
21438;SDS011;10880;50.302;18.736;2023-03-13T08:25:16;9.83;;;5.13;;
21438;SDS011;10880;50.302;18.736;2023-03-13T08:27:42;7.03;;;4.30;;
21438;SDS011;10880;50.302;18.736;2023-03-13T08:30:09;6.73;;;3.70;;
21438;SDS011;10880;50.302;18.736;2023-03-13T08:32:36;6.50;;;4.07;;
21438;SDS011;10880;50.302;18.736;2023-03-13T08:35:03;9.50;;;5.13;;
21438;SDS011;10880;50.302;18.736;2023-03-13T08:37:30;8.93;;;4.60;;
21438;SDS011;10880;50.302;18.736;2023-03-13T08:39:56;9.50;;;5.20;;
21438;SDS011;10880;50.302;18.736;2023-03-13T08:42:24;6.73;;;3.87;;
21438;SDS011;10880;50.302;18.736;2023-03-13T08:44:50;5.50;;;3.70;;
21438;SDS011;10880;50.302;18.736;2023-03-13T08:47:17;8.50;;;4.07;;
21438;SDS011;10880;50.302;18.736;2023-03-13T08:49:44;5.70;;;3.70;;
21438;SDS011;10880;50.302;18.736;2023-03-13T08:52:11;6.47;;;3.77;;
21438;SDS011;10880;50.302;18.736;2023-03-13T08:54:42;8.13;;;4.43;;
21438;SDS011;10880;50.302;18.736;2023-03-13T08:57:09;7.97;;;4.20;;
21438;SDS011;10880;50.302;18.736;2023-03-13T08:59:42;11.17;;;4.60;;
21438;SDS011;10880;50.302;18.736;2023-03-13T09:02:09;10.60;;;5.13;;
21438;SDS011;10880;50.302;18.736;2023-03-13T09:04:35;9.33;;;4.33;;
21438;SDS011;10880;50.302;18.736;2023-03-13T09:07:02;6.43;;;3.80;;
21438;SDS011;10880;50.302;18.736;2023-03-13T09:09:29;6.30;;;3.90;;
21438;SDS011;10880;50.302;18.736;2023-03-13T09:11:56;4.93;;;3.20;;
21438;SDS011;10880;50.302;18.736;2023-03-13T09:14:23;6.80;;;3.60;;
21438;SDS011;10880;50.302;18.736;2023-03-13T09:16:49;6.17;;;3.80;;
21438;SDS011;10880;50.302;18.736;2023-03-13T09:19:16;4.53;;;3.33;;
21438;SDS011;10880;50.302;18.736;2023-03-13T09:21:43;7.03;;;3.93;;
21438;SDS011;10880;50.302;18.736;2023-03-13T09:24:11;6.63;;;3.70;;
21438;SDS011;10880;50.302;18.736;2023-03-13T09:26:37;7.40;;;3.53;;
21438;SDS011;10880;50.302;18.736;2023-03-13T09:29:04;5.40;;;3.70;;
21438;SDS011;10880;50.302;18.736;2023-03-13T09:31:31;7.07;;;3.73;;
21438;SDS011;10880;50.302;18.736;2023-03-13T09:33:58;9.20;;;4.17;;
21438;SDS011;10880;50.302;18.736;2023-03-13T09:36:26;4.97;;;3.10;;
21438;SDS011;10880;50.302;18.736;2023-03-13T09:38:54;5.30;;;3.37;;
21438;SDS011;10880;50.302;18.736;2023-03-13T09:41:38;6.77;;;3.67;;
21438;SDS011;10880;50.302;18.736;2023-03-13T09:49:23;4.63;;;3.10;;
21438;SDS011;10880;50.302;18.736;2023-03-13T09:54:33;4.73;;;3.03;;
21438;SDS011;10880;50.302;18.736;2023-03-13T09:57:14;5.67;;;3.13;;
21438;SDS011;10880;50.302;18.736;2023-03-13T10:02:26;6.13;;;3.30;;
21438;SDS011;10880;50.302;18.736;2023-03-13T10:04:55;6.80;;;3.33;;
21438;SDS011;10880;50.302;18.736;2023-03-13T10:07:28;5.93;;;3.27;;
21438;SDS011;10880;50.302;18.736;2023-03-13T10:09:55;2.83;;;2.53;;
21438;SDS011;10880;50.302;18.736;2023-03-13T10:12:22;2.70;;;2.47;;
21438;SDS011;10880;50.302;18.736;2023-03-13T10:14:56;10.83;;;3.93;;
21438;SDS011;10880;50.302;18.736;2023-03-13T10:17:41;4.40;;;2.70;;
21438;SDS011;10880;50.302;18.736;2023-03-13T10:22:56;6.40;;;3.13;;
21438;SDS011;10880;50.302;18.736;2023-03-13T10:25:31;7.10;;;3.47;;
21438;SDS011;10880;50.302;18.736;2023-03-13T10:27:58;5.10;;;3.10;;
21438;SDS011;10880;50.302;18.736;2023-03-13T10:30:29;6.27;;;3.23;;
21438;SDS011;10880;50.302;18.736;2023-03-13T10:33:12;5.00;;;2.73;;
21438;SDS011;10880;50.302;18.736;2023-03-13T10:35:43;6.27;;;3.10;;
21438;SDS011;10880;50.302;18.736;2023-03-13T10:38:11;3.60;;;2.63;;
21438;SDS011;10880;50.302;18.736;2023-03-13T10:40:39;16.80;;;4.03;;
21438;SDS011;10880;50.302;18.736;2023-03-13T10:45:44;5.70;;;3.30;;
21438;SDS011;10880;50.302;18.736;2023-03-13T10:50:37;9.70;;;3.70;;
21438;SDS011;10880;50.302;18.736;2023-03-13T10:53:16;5.23;;;3.30;;
21438;SDS011;10880;50.302;18.736;2023-03-13T10:55:45;6.83;;;3.90;;
21438;SDS011;10880;50.302;18.736;2023-03-13T10:58:19;6.77;;;3.33;;
21438;SDS011;10880;50.302;18.736;2023-03-13T11:00:48;5.23;;;3.40;;
21438;SDS011;10880;50.302;18.736;2023-03-13T11:03:18;6.20;;;3.60;;
21438;SDS011;10880;50.302;18.736;2023-03-13T11:05:57;10.53;;;4.60;;
21438;SDS011;10880;50.302;18.736;2023-03-13T11:08:26;4.77;;;2.93;;
21438;SDS011;10880;50.302;18.736;2023-03-13T11:11:36;6.73;;;3.67;;
21438;SDS011;10880;50.302;18.736;2023-03-13T11:13:45;7.40;;;4.00;;
21438;SDS011;10880;50.302;18.736;2023-03-13T11:16:45;5.93;;;3.67;;
21438;SDS011;10880;50.302;18.736;2023-03-13T11:22:42;6.30;;;3.60;;
21438;SDS011;10880;50.302;18.736;2023-03-13T11:25:02;6.00;;;3.20;;
21438;SDS011;10880;50.302;18.736;2023-03-13T11:27:37;5.53;;;3.50;;
21438;SDS011;10880;50.302;18.736;2023-03-13T11:32:53;9.93;;;3.60;;
21438;SDS011;10880;50.302;18.736;2023-03-13T11:35:26;4.87;;;3.07;;
21438;SDS011;10880;50.302;18.736;2023-03-13T11:37:59;8.13;;;3.50;;
21438;SDS011;10880;50.302;18.736;2023-03-13T11:40:36;13.23;;;4.10;;
21438;SDS011;10880;50.302;18.736;2023-03-13T11:55:44;5.37;;;3.67;;
21438;SDS011;10880;50.302;18.736;2023-03-13T12:01:00;6.90;;;3.83;;
21438;SDS011;10880;50.302;18.736;2023-03-13T12:03:42;9.63;;;5.20;;
21438;SDS011;10880;50.302;18.736;2023-03-13T12:06:24;10.63;;;4.97;;
21438;SDS011;10880;50.302;18.736;2023-03-13T12:08:55;9.03;;;4.43;;
21438;SDS011;10880;50.302;18.736;2023-03-13T12:11:54;9.83;;;5.07;;
21438;SDS011;10880;50.302;18.736;2023-03-13T12:14:30;7.23;;;3.87;;
21438;SDS011;10880;50.302;18.736;2023-03-13T12:17:02;5.87;;;3.07;;
21438;SDS011;10880;50.302;18.736;2023-03-13T12:19:36;8.20;;;4.57;;
21438;SDS011;10880;50.302;18.736;2023-03-13T12:22:29;7.63;;;4.40;;
21438;SDS011;10880;50.302;18.736;2023-03-13T12:25:02;5.67;;;3.40;;
21438;SDS011;10880;50.302;18.736;2023-03-13T12:27:41;7.43;;;3.33;;
21438;SDS011;10880;50.302;18.736;2023-03-13T12:30:36;6.63;;;3.83;;
21438;SDS011;10880;50.302;18.736;2023-03-13T12:33:13;11.90;;;5.53;;
21438;SDS011;10880;50.302;18.736;2023-03-13T12:36:07;9.50;;;5.37;;
21438;SDS011;10880;50.302;18.736;2023-03-13T12:38:46;7.27;;;4.50;;
21438;SDS011;10880;50.302;18.736;2023-03-13T12:43:50;4.07;;;3.00;;
21438;SDS011;10880;50.302;18.736;2023-03-13T12:59:10;9.60;;;5.77;;
21438;SDS011;10880;50.302;18.736;2023-03-13T13:01:53;7.30;;;4.37;;
21438;SDS011;10880;50.302;18.736;2023-03-13T13:04:22;5.03;;;3.40;;
21438;SDS011;10880;50.302;18.736;2023-03-13T13:09:30;4.57;;;3.23;;
21438;SDS011;10880;50.302;18.736;2023-03-13T13:32:53;9.57;;;4.60;;
21438;SDS011;10880;50.302;18.736;2023-03-13T13:37:48;7.17;;;4.70;;
21438;SDS011;10880;50.302;18.736;2023-03-13T13:40:20;6.00;;;4.10;;
21438;SDS011;10880;50.302;18.736;2023-03-13T13:48:22;5.97;;;3.83;;
21438;SDS011;10880;50.302;18.736;2023-03-13T13:51:23;5.37;;;3.57;;
21438;SDS011;10880;50.302;18.736;2023-03-13T13:58:55;6.43;;;3.70;;
21438;SDS011;10880;50.302;18.736;2023-03-13T14:01:23;9.13;;;6.20;;
21438;SDS011;10880;50.302;18.736;2023-03-13T14:03:50;6.97;;;5.00;;
21438;SDS011;10880;50.302;18.736;2023-03-13T14:06:27;7.60;;;4.87;;
21438;SDS011;10880;50.302;18.736;2023-03-13T14:09:00;9.93;;;5.30;;
21438;SDS011;10880;50.302;18.736;2023-03-13T14:11:36;6.00;;;3.93;;
21438;SDS011;10880;50.302;18.736;2023-03-13T14:14:07;5.07;;;3.90;;
21438;SDS011;10880;50.302;18.736;2023-03-13T14:16:38;7.30;;;4.37;;
21438;SDS011;10880;50.302;18.736;2023-03-13T14:19:20;9.17;;;4.97;;
21438;SDS011;10880;50.302;18.736;2023-03-13T14:21:48;8.17;;;4.50;;
21438;SDS011;10880;50.302;18.736;2023-03-13T14:24:15;9.43;;;5.27;;
21438;SDS011;10880;50.302;18.736;2023-03-13T14:26:42;10.70;;;4.53;;
21438;SDS011;10880;50.302;18.736;2023-03-13T14:29:16;7.40;;;3.90;;
21438;SDS011;10880;50.302;18.736;2023-03-13T14:31:52;7.60;;;4.70;;
21438;SDS011;10880;50.302;18.736;2023-03-13T14:34:24;18.90;;;9.60;;
21438;SDS011;10880;50.302;18.736;2023-03-13T14:39:20;23.20;;;11.00;;
21438;SDS011;10880;50.302;18.736;2023-03-13T14:44:36;11.73;;;7.20;;
21438;SDS011;10880;50.302;18.736;2023-03-13T14:47:05;8.53;;;5.30;;
21438;SDS011;10880;50.302;18.736;2023-03-13T14:49:34;8.47;;;5.00;;
21438;SDS011;10880;50.302;18.736;2023-03-13T14:52:02;9.60;;;5.70;;
21438;SDS011;10880;50.302;18.736;2023-03-13T14:54:30;9.83;;;5.40;;
21438;SDS011;10880;50.302;18.736;2023-03-13T14:57:18;10.70;;;5.83;;
21438;SDS011;10880;50.302;18.736;2023-03-13T14:59:50;12.63;;;6.20;;
21438;SDS011;10880;50.302;18.736;2023-03-13T15:07:37;6.87;;;4.27;;
21438;SDS011;10880;50.302;18.736;2023-03-13T15:10:22;8.77;;;4.90;;
21438;SDS011;10880;50.302;18.736;2023-03-13T15:12:56;6.40;;;4.10;;
21438;SDS011;10880;50.302;18.736;2023-03-13T15:15:22;9.97;;;4.37;;
21438;SDS011;10880;50.302;18.736;2023-03-13T15:17:50;6.20;;;4.30;;
21438;SDS011;10880;50.302;18.736;2023-03-13T15:20:17;5.57;;;4.00;;
21438;SDS011;10880;50.302;18.736;2023-03-13T15:22:45;7.30;;;4.27;;
21438;SDS011;10880;50.302;18.736;2023-03-13T15:25:16;8.60;;;5.60;;
21438;SDS011;10880;50.302;18.736;2023-03-13T15:27:50;7.40;;;5.00;;
21438;SDS011;10880;50.302;18.736;2023-03-13T15:30:17;6.17;;;3.97;;
21438;SDS011;10880;50.302;18.736;2023-03-13T15:32:48;9.87;;;5.73;;
21438;SDS011;10880;50.302;18.736;2023-03-13T15:35:23;38.20;;;12.37;;
21438;SDS011;10880;50.302;18.736;2023-03-13T15:37:58;15.40;;;7.00;;
21438;SDS011;10880;50.302;18.736;2023-03-13T15:40:26;12.77;;;6.10;;
21438;SDS011;10880;50.302;18.736;2023-03-13T15:42:55;8.30;;;6.00;;
21438;SDS011;10880;50.302;18.736;2023-03-13T15:45:23;9.63;;;5.30;;
21438;SDS011;10880;50.302;18.736;2023-03-13T15:47:50;7.40;;;5.00;;
21438;SDS011;10880;50.302;18.736;2023-03-13T15:50:19;6.40;;;4.20;;
21438;SDS011;10880;50.302;18.736;2023-03-13T15:52:47;6.00;;;4.30;;
21438;SDS011;10880;50.302;18.736;2023-03-13T15:55:13;5.97;;;4.43;;
21438;SDS011;10880;50.302;18.736;2023-03-13T15:57:41;7.53;;;3.83;;
21438;SDS011;10880;50.302;18.736;2023-03-13T16:00:15;6.77;;;4.77;;
21438;SDS011;10880;50.302;18.736;2023-03-13T16:02:47;7.27;;;4.37;;
21438;SDS011;10880;50.302;18.736;2023-03-13T16:05:14;7.23;;;4.77;;
21438;SDS011;10880;50.302;18.736;2023-03-13T16:07:41;9.20;;;5.30;;
21438;SDS011;10880;50.302;18.736;2023-03-13T16:10:13;9.60;;;5.43;;
21438;SDS011;10880;50.302;18.736;2023-03-13T16:12:40;7.43;;;4.70;;
21438;SDS011;10880;50.302;18.736;2023-03-13T16:15:07;7.80;;;4.83;;
21438;SDS011;10880;50.302;18.736;2023-03-13T16:17:35;7.43;;;4.80;;
21438;SDS011;10880;50.302;18.736;2023-03-13T16:20:02;10.43;;;6.00;;
21438;SDS011;10880;50.302;18.736;2023-03-13T16:22:37;12.03;;;6.17;;
21438;SDS011;10880;50.302;18.736;2023-03-13T16:25:04;9.47;;;5.30;;
21438;SDS011;10880;50.302;18.736;2023-03-13T16:27:31;12.40;;;7.13;;
21438;SDS011;10880;50.302;18.736;2023-03-13T16:30:00;9.17;;;5.50;;
21438;SDS011;10880;50.302;18.736;2023-03-13T16:32:34;9.07;;;6.10;;
21438;SDS011;10880;50.302;18.736;2023-03-13T16:35:00;8.40;;;5.00;;
21438;SDS011;10880;50.302;18.736;2023-03-13T16:37:28;7.03;;;4.60;;
21438;SDS011;10880;50.302;18.736;2023-03-13T16:39:58;5.17;;;3.80;;
21438;SDS011;10880;50.302;18.736;2023-03-13T16:42:24;5.13;;;3.40;;
21438;SDS011;10880;50.302;18.736;2023-03-13T16:44:54;6.73;;;4.20;;
21438;SDS011;10880;50.302;18.736;2023-03-13T16:47:27;7.23;;;4.17;;
21438;SDS011;10880;50.302;18.736;2023-03-13T16:49:54;6.77;;;3.73;;
21438;SDS011;10880;50.302;18.736;2023-03-13T16:52:26;8.77;;;5.17;;